sensor_id;sensor_type;location;lat;lon;timestamp;P1;durP1;ratioP1;P2;durP2;ratioP2
21162;SDS011;10739;52.198;20.908;2023-02-28T00:03:53;20.35;;;8.95;;
21162;SDS011;10739;52.198;20.908;2023-02-28T00:06:20;16.25;;;8.75;;
21162;SDS011;10739;52.198;20.908;2023-02-28T00:08:46;16.55;;;7.93;;
21162;SDS011;10739;52.198;20.908;2023-02-28T00:11:13;17.27;;;8.48;;
21162;SDS011;10739;52.198;20.908;2023-02-28T00:13:42;15.05;;;9.02;;
21162;SDS011;10739;52.198;20.908;2023-02-28T00:16:15;17.67;;;8.73;;
21162;SDS011;10739;52.198;20.908;2023-02-28T00:18:45;17.23;;;8.93;;
21162;SDS011;10739;52.198;20.908;2023-02-28T00:21:13;23.35;;;8.80;;
21162;SDS011;10739;52.198;20.908;2023-02-28T00:23:40;16.98;;;8.70;;
21162;SDS011;10739;52.198;20.908;2023-02-28T00:26:07;18.88;;;8.40;;
21162;SDS011;10739;52.198;20.908;2023-02-28T00:28:33;14.88;;;8.30;;
21162;SDS011;10739;52.198;20.908;2023-02-28T00:30:59;18.42;;;8.45;;
21162;SDS011;10739;52.198;20.908;2023-02-28T00:33:27;16.52;;;9.25;;
21162;SDS011;10739;52.198;20.908;2023-02-28T00:36:00;17.80;;;8.70;;
21162;SDS011;10739;52.198;20.908;2023-02-28T00:38:30;17.45;;;9.18;;
21162;SDS011;10739;52.198;20.908;2023-02-28T00:40:56;17.85;;;9.15;;
21162;SDS011;10739;52.198;20.908;2023-02-28T00:43:23;20.17;;;9.27;;
21162;SDS011;10739;52.198;20.908;2023-02-28T00:45:50;15.90;;;8.85;;
21162;SDS011;10739;52.198;20.908;2023-02-28T00:48:16;17.17;;;8.45;;
21162;SDS011;10739;52.198;20.908;2023-02-28T00:50:42;17.27;;;9.52;;
21162;SDS011;10739;52.198;20.908;2023-02-28T00:53:08;23.50;;;10.50;;
21162;SDS011;10739;52.198;20.908;2023-02-28T00:55:35;16.23;;;9.02;;
21162;SDS011;10739;52.198;20.908;2023-02-28T00:58:01;17.05;;;9.00;;
21162;SDS011;10739;52.198;20.908;2023-02-28T01:00:28;15.52;;;9.32;;
21162;SDS011;10739;52.198;20.908;2023-02-28T01:02:55;15.35;;;8.93;;
21162;SDS011;10739;52.198;20.908;2023-02-28T01:05:21;17.75;;;9.27;;
21162;SDS011;10739;52.198;20.908;2023-02-28T01:07:48;16.77;;;9.18;;
21162;SDS011;10739;52.198;20.908;2023-02-28T01:10:14;20.48;;;9.68;;
21162;SDS011;10739;52.198;20.908;2023-02-28T01:12:41;17.55;;;9.63;;
21162;SDS011;10739;52.198;20.908;2023-02-28T01:15:09;16.45;;;9.23;;
21162;SDS011;10739;52.198;20.908;2023-02-28T01:17:36;24.67;;;9.35;;
21162;SDS011;10739;52.198;20.908;2023-02-28T01:20:03;18.63;;;10.25;;
21162;SDS011;10739;52.198;20.908;2023-02-28T01:22:31;17.35;;;8.85;;
21162;SDS011;10739;52.198;20.908;2023-02-28T01:25:00;15.32;;;9.45;;
21162;SDS011;10739;52.198;20.908;2023-02-28T01:27:26;22.40;;;9.52;;
21162;SDS011;10739;52.198;20.908;2023-02-28T01:29:53;15.05;;;9.57;;
21162;SDS011;10739;52.198;20.908;2023-02-28T01:32:20;21.92;;;9.93;;
21162;SDS011;10739;52.198;20.908;2023-02-28T01:34:46;17.45;;;9.75;;
21162;SDS011;10739;52.198;20.908;2023-02-28T01:37:12;19.10;;;9.20;;
21162;SDS011;10739;52.198;20.908;2023-02-28T01:39:39;17.27;;;9.57;;
21162;SDS011;10739;52.198;20.908;2023-02-28T01:42:05;17.90;;;9.48;;
21162;SDS011;10739;52.198;20.908;2023-02-28T01:47:32;19.88;;;10.10;;
21162;SDS011;10739;52.198;20.908;2023-02-28T01:50:06;23.98;;;10.32;;
21162;SDS011;10739;52.198;20.908;2023-02-28T01:52:47;17.65;;;10.25;;
21162;SDS011;10739;52.198;20.908;2023-02-28T01:55:16;17.38;;;9.90;;
21162;SDS011;10739;52.198;20.908;2023-02-28T02:02:55;18.67;;;10.23;;
21162;SDS011;10739;52.198;20.908;2023-02-28T02:05:28;20.00;;;10.05;;
21162;SDS011;10739;52.198;20.908;2023-02-28T02:08:04;19.35;;;10.68;;
21162;SDS011;10739;52.198;20.908;2023-02-28T02:10:48;18.17;;;10.50;;
21162;SDS011;10739;52.198;20.908;2023-02-28T02:13:43;19.10;;;10.25;;
21162;SDS011;10739;52.198;20.908;2023-02-28T02:36:18;25.13;;;11.10;;
21162;SDS011;10739;52.198;20.908;2023-02-28T02:39:23;24.58;;;11.82;;
21162;SDS011;10739;52.198;20.908;2023-02-28T02:42:19;21.40;;;11.75;;
21162;SDS011;10739;52.198;20.908;2023-02-28T02:45:24;24.48;;;11.32;;
21162;SDS011;10739;52.198;20.908;2023-02-28T02:48:16;21.83;;;11.63;;
21162;SDS011;10739;52.198;20.908;2023-02-28T02:50:48;18.40;;;9.07;;
21162;SDS011;10739;52.198;20.908;2023-02-28T02:53:24;23.15;;;12.20;;
21162;SDS011;10739;52.198;20.908;2023-02-28T02:56:02;20.88;;;11.13;;
21162;SDS011;10739;52.198;20.908;2023-02-28T02:58:33;23.33;;;11.35;;
21162;SDS011;10739;52.198;20.908;2023-02-28T03:01:08;24.27;;;12.50;;
21162;SDS011;10739;52.198;20.908;2023-02-28T03:04:10;23.65;;;11.73;;
21162;SDS011;10739;52.198;20.908;2023-02-28T03:06:42;23.50;;;12.30;;
21162;SDS011;10739;52.198;20.908;2023-02-28T03:09:09;21.20;;;11.98;;
21162;SDS011;10739;52.198;20.908;2023-02-28T03:11:35;27.35;;;11.88;;
21162;SDS011;10739;52.198;20.908;2023-02-28T03:17:05;21.98;;;11.13;;
21162;SDS011;10739;52.198;20.908;2023-02-28T03:20:04;25.73;;;12.32;;
21162;SDS011;10739;52.198;20.908;2023-02-28T03:25:52;22.42;;;12.43;;
21162;SDS011;10739;52.198;20.908;2023-02-28T03:28:31;26.27;;;12.93;;
21162;SDS011;10739;52.198;20.908;2023-02-28T03:31:21;28.92;;;12.82;;
21162;SDS011;10739;52.198;20.908;2023-02-28T03:34:22;25.05;;;12.73;;
21162;SDS011;10739;52.198;20.908;2023-02-28T03:37:02;26.23;;;13.20;;
21162;SDS011;10739;52.198;20.908;2023-02-28T03:39:44;25.73;;;12.75;;
21162;SDS011;10739;52.198;20.908;2023-02-28T03:42:22;24.60;;;13.38;;
21162;SDS011;10739;52.198;20.908;2023-02-28T03:44:57;24.35;;;12.32;;
21162;SDS011;10739;52.198;20.908;2023-02-28T03:47:40;25.33;;;13.63;;
21162;SDS011;10739;52.198;20.908;2023-02-28T03:50:17;24.10;;;12.73;;
21162;SDS011;10739;52.198;20.908;2023-02-28T03:52:58;30.20;;;13.48;;
21162;SDS011;10739;52.198;20.908;2023-02-28T03:56:03;20.42;;;11.65;;
21162;SDS011;10739;52.198;20.908;2023-02-28T03:58:49;19.10;;;11.48;;
21162;SDS011;10739;52.198;20.908;2023-02-28T04:01:39;21.10;;;11.73;;
21162;SDS011;10739;52.198;20.908;2023-02-28T04:04:10;20.60;;;12.60;;
21162;SDS011;10739;52.198;20.908;2023-02-28T04:06:39;20.52;;;11.95;;
21162;SDS011;10739;52.198;20.908;2023-02-28T04:09:08;20.45;;;12.02;;
21162;SDS011;10739;52.198;20.908;2023-02-28T04:11:51;23.42;;;12.57;;
21162;SDS011;10739;52.198;20.908;2023-02-28T04:14:18;21.73;;;11.75;;
21162;SDS011;10739;52.198;20.908;2023-02-28T04:16:44;21.05;;;12.13;;
21162;SDS011;10739;52.198;20.908;2023-02-28T04:19:11;24.90;;;12.30;;
21162;SDS011;10739;52.198;20.908;2023-02-28T04:21:43;27.25;;;13.00;;
21162;SDS011;10739;52.198;20.908;2023-02-28T04:24:12;24.73;;;12.40;;
21162;SDS011;10739;52.198;20.908;2023-02-28T04:26:43;21.75;;;12.25;;
21162;SDS011;10739;52.198;20.908;2023-02-28T04:29:22;24.65;;;13.23;;
21162;SDS011;10739;52.198;20.908;2023-02-28T04:31:54;23.80;;;12.05;;
21162;SDS011;10739;52.198;20.908;2023-02-28T04:34:29;19.38;;;11.80;;
21162;SDS011;10739;52.198;20.908;2023-02-28T04:36:57;27.65;;;12.70;;
21162;SDS011;10739;52.198;20.908;2023-02-28T04:39:25;24.67;;;12.88;;
21162;SDS011;10739;52.198;20.908;2023-02-28T04:41:51;22.45;;;12.18;;
21162;SDS011;10739;52.198;20.908;2023-02-28T04:44:18;22.67;;;11.90;;
21162;SDS011;10739;52.198;20.908;2023-02-28T04:46:47;23.40;;;12.18;;
21162;SDS011;10739;52.198;20.908;2023-02-28T04:49:15;25.88;;;12.13;;
21162;SDS011;10739;52.198;20.908;2023-02-28T04:51:41;22.15;;;11.95;;
21162;SDS011;10739;52.198;20.908;2023-02-28T04:54:08;20.48;;;11.80;;
21162;SDS011;10739;52.198;20.908;2023-02-28T04:56:35;22.50;;;12.68;;
21162;SDS011;10739;52.198;20.908;2023-02-28T04:59:01;20.55;;;11.38;;
21162;SDS011;10739;52.198;20.908;2023-02-28T05:01:28;25.55;;;12.85;;
21162;SDS011;10739;52.198;20.908;2023-02-28T05:03:59;26.00;;;13.77;;
21162;SDS011;10739;52.198;20.908;2023-02-28T05:06:28;21.10;;;11.98;;
21162;SDS011;10739;52.198;20.908;2023-02-28T05:08:57;28.35;;;12.90;;
21162;SDS011;10739;52.198;20.908;2023-02-28T05:11:25;23.38;;;12.25;;
21162;SDS011;10739;52.198;20.908;2023-02-28T05:14:03;23.65;;;12.77;;
21162;SDS011;10739;52.198;20.908;2023-02-28T05:16:35;24.33;;;12.82;;
21162;SDS011;10739;52.198;20.908;2023-02-28T05:19:01;24.33;;;12.73;;
21162;SDS011;10739;52.198;20.908;2023-02-28T05:21:35;22.65;;;12.55;;
21162;SDS011;10739;52.198;20.908;2023-02-28T05:24:16;24.92;;;12.50;;
21162;SDS011;10739;52.198;20.908;2023-02-28T05:26:48;22.42;;;12.75;;
21162;SDS011;10739;52.198;20.908;2023-02-28T05:29:18;25.42;;;13.25;;
21162;SDS011;10739;52.198;20.908;2023-02-28T05:31:44;24.67;;;12.60;;
21162;SDS011;10739;52.198;20.908;2023-02-28T05:34:10;20.60;;;12.25;;
21162;SDS011;10739;52.198;20.908;2023-02-28T05:36:38;22.52;;;12.85;;
21162;SDS011;10739;52.198;20.908;2023-02-28T05:39:07;21.83;;;12.85;;
21162;SDS011;10739;52.198;20.908;2023-02-28T05:41:38;21.65;;;13.02;;
21162;SDS011;10739;52.198;20.908;2023-02-28T05:44:06;22.85;;;13.13;;
21162;SDS011;10739;52.198;20.908;2023-02-28T05:46:33;20.55;;;12.20;;
21162;SDS011;10739;52.198;20.908;2023-02-28T05:48:59;23.92;;;12.38;;
21162;SDS011;10739;52.198;20.908;2023-02-28T05:51:26;28.55;;;13.70;;
21162;SDS011;10739;52.198;20.908;2023-02-28T05:53:52;26.85;;;14.32;;
21162;SDS011;10739;52.198;20.908;2023-02-28T05:56:19;34.40;;;16.50;;
21162;SDS011;10739;52.198;20.908;2023-02-28T05:58:46;38.00;;;17.23;;
21162;SDS011;10739;52.198;20.908;2023-02-28T06:01:20;35.75;;;17.38;;
21162;SDS011;10739;52.198;20.908;2023-02-28T06:03:51;37.88;;;18.90;;
21162;SDS011;10739;52.198;20.908;2023-02-28T06:06:17;40.78;;;19.58;;
21162;SDS011;10739;52.198;20.908;2023-02-28T06:08:44;39.45;;;20.45;;
21162;SDS011;10739;52.198;20.908;2023-02-28T06:11:11;38.38;;;18.83;;
21162;SDS011;10739;52.198;20.908;2023-02-28T06:13:37;41.00;;;18.60;;
21162;SDS011;10739;52.198;20.908;2023-02-28T06:16:04;37.92;;;17.77;;
21162;SDS011;10739;52.198;20.908;2023-02-28T06:18:31;33.13;;;16.85;;
21162;SDS011;10739;52.198;20.908;2023-02-28T06:20:57;30.48;;;16.15;;
21162;SDS011;10739;52.198;20.908;2023-02-28T06:23:23;29.90;;;15.90;;
21162;SDS011;10739;52.198;20.908;2023-02-28T06:25:50;29.27;;;15.40;;
21162;SDS011;10739;52.198;20.908;2023-02-28T06:28:18;28.75;;;14.35;;
21162;SDS011;10739;52.198;20.908;2023-02-28T06:30:44;26.63;;;14.68;;
21162;SDS011;10739;52.198;20.908;2023-02-28T06:33:11;27.92;;;12.88;;
21162;SDS011;10739;52.198;20.908;2023-02-28T06:35:37;26.95;;;11.65;;
21162;SDS011;10739;52.198;20.908;2023-02-28T06:38:03;23.42;;;12.98;;
21162;SDS011;10739;52.198;20.908;2023-02-28T06:40:30;20.90;;;11.73;;
21162;SDS011;10739;52.198;20.908;2023-02-28T06:42:59;21.58;;;10.68;;
21162;SDS011;10739;52.198;20.908;2023-02-28T06:45:25;25.63;;;11.70;;
21162;SDS011;10739;52.198;20.908;2023-02-28T06:47:52;21.52;;;10.70;;
21162;SDS011;10739;52.198;20.908;2023-02-28T06:50:18;16.42;;;9.35;;
21162;SDS011;10739;52.198;20.908;2023-02-28T06:52:45;14.25;;;9.05;;
21162;SDS011;10739;52.198;20.908;2023-02-28T06:55:12;16.70;;;8.45;;
21162;SDS011;10739;52.198;20.908;2023-02-28T06:57:39;17.63;;;8.98;;
21162;SDS011;10739;52.198;20.908;2023-02-28T07:00:08;17.42;;;9.98;;
21162;SDS011;10739;52.198;20.908;2023-02-28T07:02:36;17.70;;;9.18;;
21162;SDS011;10739;52.198;20.908;2023-02-28T07:05:05;30.00;;;14.90;;
21162;SDS011;10739;52.198;20.908;2023-02-28T07:07:32;21.42;;;10.27;;
21162;SDS011;10739;52.198;20.908;2023-02-28T07:10:01;25.58;;;10.63;;
21162;SDS011;10739;52.198;20.908;2023-02-28T07:12:28;20.83;;;10.02;;
21162;SDS011;10739;52.198;20.908;2023-02-28T07:14:54;18.92;;;8.90;;
21162;SDS011;10739;52.198;20.908;2023-02-28T07:17:21;20.33;;;8.52;;
21162;SDS011;10739;52.198;20.908;2023-02-28T07:19:47;14.55;;;7.65;;
21162;SDS011;10739;52.198;20.908;2023-02-28T07:22:14;26.45;;;9.98;;
21162;SDS011;10739;52.198;20.908;2023-02-28T07:24:40;17.88;;;8.52;;
21162;SDS011;10739;52.198;20.908;2023-02-28T07:27:06;18.30;;;8.13;;
21162;SDS011;10739;52.198;20.908;2023-02-28T07:29:33;12.32;;;7.00;;
21162;SDS011;10739;52.198;20.908;2023-02-28T07:31:59;11.82;;;6.88;;
21162;SDS011;10739;52.198;20.908;2023-02-28T07:34:25;12.63;;;6.90;;
21162;SDS011;10739;52.198;20.908;2023-02-28T07:36:52;17.00;;;7.20;;
21162;SDS011;10739;52.198;20.908;2023-02-28T07:39:20;7.55;;;5.65;;
21162;SDS011;10739;52.198;20.908;2023-02-28T07:41:47;9.75;;;5.07;;
21162;SDS011;10739;52.198;20.908;2023-02-28T07:44:14;8.98;;;5.07;;
21162;SDS011;10739;52.198;20.908;2023-02-28T07:46:40;10.48;;;5.63;;
21162;SDS011;10739;52.198;20.908;2023-02-28T07:49:07;7.00;;;4.88;;
21162;SDS011;10739;52.198;20.908;2023-02-28T07:51:33;9.80;;;5.57;;
21162;SDS011;10739;52.198;20.908;2023-02-28T07:53:59;13.43;;;5.72;;
21162;SDS011;10739;52.198;20.908;2023-02-28T07:56:26;7.97;;;5.13;;
21162;SDS011;10739;52.198;20.908;2023-02-28T07:58:52;10.80;;;5.90;;
21162;SDS011;10739;52.198;20.908;2023-02-28T08:01:18;11.38;;;5.80;;
21162;SDS011;10739;52.198;20.908;2023-02-28T08:03:45;10.45;;;6.20;;
21162;SDS011;10739;52.198;20.908;2023-02-28T08:06:15;9.70;;;5.63;;
21162;SDS011;10739;52.198;20.908;2023-02-28T08:08:45;13.48;;;6.80;;
21162;SDS011;10739;52.198;20.908;2023-02-28T08:11:12;10.52;;;6.22;;
21162;SDS011;10739;52.198;20.908;2023-02-28T08:13:40;12.00;;;6.95;;
21162;SDS011;10739;52.198;20.908;2023-02-28T08:16:09;11.82;;;6.72;;
21162;SDS011;10739;52.198;20.908;2023-02-28T08:18:37;13.43;;;7.00;;
21162;SDS011;10739;52.198;20.908;2023-02-28T08:21:07;10.30;;;6.40;;
21162;SDS011;10739;52.198;20.908;2023-02-28T08:23:36;10.07;;;7.00;;
21162;SDS011;10739;52.198;20.908;2023-02-28T08:26:03;9.65;;;6.28;;
21162;SDS011;10739;52.198;20.908;2023-02-28T08:28:30;11.98;;;7.30;;
21162;SDS011;10739;52.198;20.908;2023-02-28T08:30:57;11.23;;;6.75;;
21162;SDS011;10739;52.198;20.908;2023-02-28T08:33:24;12.07;;;6.72;;
21162;SDS011;10739;52.198;20.908;2023-02-28T08:35:53;9.32;;;6.35;;
21162;SDS011;10739;52.198;20.908;2023-02-28T08:38:21;13.60;;;6.78;;
21162;SDS011;10739;52.198;20.908;2023-02-28T08:40:48;9.32;;;6.75;;
21162;SDS011;10739;52.198;20.908;2023-02-28T08:43:15;14.88;;;7.13;;
21162;SDS011;10739;52.198;20.908;2023-02-28T08:45:42;10.32;;;6.55;;
21162;SDS011;10739;52.198;20.908;2023-02-28T08:48:08;13.65;;;7.60;;
21162;SDS011;10739;52.198;20.908;2023-02-28T08:50:35;10.68;;;6.63;;
21162;SDS011;10739;52.198;20.908;2023-02-28T08:53:01;10.85;;;6.93;;
21162;SDS011;10739;52.198;20.908;2023-02-28T08:55:28;15.55;;;7.22;;
21162;SDS011;10739;52.198;20.908;2023-02-28T08:57:54;10.75;;;7.30;;
21162;SDS011;10739;52.198;20.908;2023-02-28T09:00:21;16.05;;;7.70;;
21162;SDS011;10739;52.198;20.908;2023-02-28T09:02:47;10.93;;;7.25;;
21162;SDS011;10739;52.198;20.908;2023-02-28T09:05:14;11.13;;;7.38;;
21162;SDS011;10739;52.198;20.908;2023-02-28T09:07:40;13.18;;;7.43;;
21162;SDS011;10739;52.198;20.908;2023-02-28T09:10:07;17.00;;;7.90;;
21162;SDS011;10739;52.198;20.908;2023-02-28T09:12:35;12.90;;;7.35;;
21162;SDS011;10739;52.198;20.908;2023-02-28T09:15:02;14.93;;;7.22;;
21162;SDS011;10739;52.198;20.908;2023-02-28T09:17:29;13.50;;;7.47;;
21162;SDS011;10739;52.198;20.908;2023-02-28T09:19:56;13.77;;;7.90;;
21162;SDS011;10739;52.198;20.908;2023-02-28T09:22:23;11.77;;;7.93;;
21162;SDS011;10739;52.198;20.908;2023-02-28T09:24:50;17.77;;;8.30;;
21162;SDS011;10739;52.198;20.908;2023-02-28T09:27:17;14.85;;;7.95;;
21162;SDS011;10739;52.198;20.908;2023-02-28T09:29:43;15.27;;;7.88;;
21162;SDS011;10739;52.198;20.908;2023-02-28T09:32:09;11.02;;;8.10;;
21162;SDS011;10739;52.198;20.908;2023-02-28T09:34:36;14.13;;;8.13;;
21162;SDS011;10739;52.198;20.908;2023-02-28T09:37:03;11.18;;;7.35;;
21162;SDS011;10739;52.198;20.908;2023-02-28T09:39:30;14.50;;;8.02;;
21162;SDS011;10739;52.198;20.908;2023-02-28T09:41:57;13.65;;;8.32;;
21162;SDS011;10739;52.198;20.908;2023-02-28T09:47:08;12.77;;;8.35;;
21162;SDS011;10739;52.198;20.908;2023-02-28T09:49:59;11.15;;;7.55;;
21162;SDS011;10739;52.198;20.908;2023-02-28T09:52:58;13.32;;;8.25;;
21162;SDS011;10739;52.198;20.908;2023-02-28T09:55:28;16.02;;;8.27;;
21162;SDS011;10739;52.198;20.908;2023-02-28T09:58:04;12.05;;;8.38;;
21162;SDS011;10739;52.198;20.908;2023-02-28T10:00:41;14.77;;;8.40;;
21162;SDS011;10739;52.198;20.908;2023-02-28T10:08:40;16.38;;;8.63;;
21162;SDS011;10739;52.198;20.908;2023-02-28T10:11:35;18.30;;;9.25;;
21162;SDS011;10739;52.198;20.908;2023-02-28T10:14:06;13.82;;;8.15;;
21162;SDS011;10739;52.198;20.908;2023-02-28T10:17:00;16.70;;;8.85;;
21162;SDS011;10739;52.198;20.908;2023-02-28T10:19:47;15.30;;;8.88;;
21162;SDS011;10739;52.198;20.908;2023-02-28T10:25:26;13.82;;;8.85;;
21162;SDS011;10739;52.198;20.908;2023-02-28T10:28:00;13.30;;;8.52;;
21162;SDS011;10739;52.198;20.908;2023-02-28T10:30:36;16.53;;;8.57;;
21162;SDS011;10739;52.198;20.908;2023-02-28T10:33:24;14.38;;;9.10;;
21162;SDS011;10739;52.198;20.908;2023-02-28T10:35:57;15.27;;;8.88;;
21162;SDS011;10739;52.198;20.908;2023-02-28T10:38:25;17.20;;;9.32;;
21162;SDS011;10739;52.198;20.908;2023-02-28T10:41:05;14.02;;;9.05;;
21162;SDS011;10739;52.198;20.908;2023-02-28T10:43:52;17.13;;;9.00;;
21162;SDS011;10739;52.198;20.908;2023-02-28T10:46:44;17.13;;;9.70;;
21162;SDS011;10739;52.198;20.908;2023-02-28T10:49:21;18.50;;;9.70;;
21162;SDS011;10739;52.198;20.908;2023-02-28T10:51:57;22.88;;;10.07;;
21162;SDS011;10739;52.198;20.908;2023-02-28T10:59:45;14.70;;;8.23;;
21162;SDS011;10739;52.198;20.908;2023-02-28T11:02:34;18.42;;;8.18;;
21162;SDS011;10739;52.198;20.908;2023-02-28T11:05:25;16.08;;;8.90;;
21162;SDS011;10739;52.198;20.908;2023-02-28T11:08:14;11.40;;;7.85;;
21162;SDS011;10739;52.198;20.908;2023-02-28T11:10:46;15.55;;;7.70;;
21162;SDS011;10739;52.198;20.908;2023-02-28T11:16:00;10.23;;;7.78;;
21162;SDS011;10739;52.198;20.908;2023-02-28T11:18:52;21.02;;;7.95;;
21162;SDS011;10739;52.198;20.908;2023-02-28T11:21:22;10.88;;;7.10;;
21162;SDS011;10739;52.198;20.908;2023-02-28T11:23:56;13.35;;;8.27;;
21162;SDS011;10739;52.198;20.908;2023-02-28T11:27:00;14.90;;;8.02;;
21162;SDS011;10739;52.198;20.908;2023-02-28T11:29:30;14.32;;;8.40;;
21162;SDS011;10739;52.198;20.908;2023-02-28T11:34:28;17.63;;;7.80;;
21162;SDS011;10739;52.198;20.908;2023-02-28T11:36:56;13.38;;;7.38;;
21162;SDS011;10739;52.198;20.908;2023-02-28T11:39:25;12.82;;;8.02;;
21162;SDS011;10739;52.198;20.908;2023-02-28T11:42:16;13.90;;;7.32;;
21162;SDS011;10739;52.198;20.908;2023-02-28T11:54:28;11.48;;;7.40;;
21162;SDS011;10739;52.198;20.908;2023-02-28T12:06:13;13.15;;;7.35;;
21162;SDS011;10739;52.198;20.908;2023-02-28T12:11:52;13.35;;;7.80;;
21162;SDS011;10739;52.198;20.908;2023-02-28T12:21:24;12.88;;;7.60;;
21162;SDS011;10739;52.198;20.908;2023-02-28T12:24:17;16.73;;;8.43;;
21162;SDS011;10739;52.198;20.908;2023-02-28T12:26:54;16.13;;;8.60;;
21162;SDS011;10739;52.198;20.908;2023-02-28T12:29:30;15.68;;;8.15;;
21162;SDS011;10739;52.198;20.908;2023-02-28T12:34:53;14.35;;;7.78;;
21162;SDS011;10739;52.198;20.908;2023-02-28T12:40:08;14.95;;;8.15;;
21162;SDS011;10739;52.198;20.908;2023-02-28T12:43:08;12.02;;;7.93;;
21162;SDS011;10739;52.198;20.908;2023-02-28T12:45:58;16.48;;;8.43;;
21162;SDS011;10739;52.198;20.908;2023-02-28T12:48:39;13.65;;;8.82;;
21162;SDS011;10739;52.198;20.908;2023-02-28T12:51:12;18.75;;;8.57;;
21162;SDS011;10739;52.198;20.908;2023-02-28T12:53:49;14.68;;;8.88;;
21162;SDS011;10739;52.198;20.908;2023-02-28T12:58:04;16.30;;;7.90;;
21162;SDS011;10739;52.198;20.908;2023-02-28T13:00:21;14.65;;;8.50;;
21162;SDS011;10739;52.198;20.908;2023-02-28T13:05:56;15.48;;;9.20;;
21162;SDS011;10739;52.198;20.908;2023-02-28T13:11:23;15.30;;;8.32;;
21162;SDS011;10739;52.198;20.908;2023-02-28T13:14:26;17.90;;;9.90;;
21162;SDS011;10739;52.198;20.908;2023-02-28T13:19:44;15.55;;;8.82;;
21162;SDS011;10739;52.198;20.908;2023-02-28T13:27:54;15.40;;;8.95;;
21162;SDS011;10739;52.198;20.908;2023-02-28T13:33:33;15.35;;;9.18;;
21162;SDS011;10739;52.198;20.908;2023-02-28T13:38:46;14.60;;;9.07;;
21162;SDS011;10739;52.198;20.908;2023-02-28T13:46:28;11.77;;;7.88;;
21162;SDS011;10739;52.198;20.908;2023-02-28T13:48:55;14.52;;;8.93;;
21162;SDS011;10739;52.198;20.908;2023-02-28T13:51:41;13.63;;;9.18;;
21162;SDS011;10739;52.198;20.908;2023-02-28T13:54:34;17.35;;;8.63;;
21162;SDS011;10739;52.198;20.908;2023-02-28T14:02:50;16.92;;;8.80;;
21162;SDS011;10739;52.198;20.908;2023-02-28T14:09:05;13.07;;;8.57;;
21162;SDS011;10739;52.198;20.908;2023-02-28T14:11:42;11.98;;;7.88;;
21162;SDS011;10739;52.198;20.908;2023-02-28T14:17:03;17.05;;;8.27;;
21162;SDS011;10739;52.198;20.908;2023-02-28T14:19:39;13.88;;;8.52;;
21162;SDS011;10739;52.198;20.908;2023-02-28T14:29:16;14.15;;;8.27;;
21162;SDS011;10739;52.198;20.908;2023-02-28T14:38:05;12.40;;;7.55;;
21162;SDS011;10739;52.198;20.908;2023-02-28T14:40:42;13.73;;;7.65;;
21162;SDS011;10739;52.198;20.908;2023-02-28T14:43:20;13.00;;;8.73;;
21162;SDS011;10739;52.198;20.908;2023-02-28T14:45:57;15.15;;;8.75;;
21162;SDS011;10739;52.198;20.908;2023-02-28T14:48:27;16.20;;;8.57;;
21162;SDS011;10739;52.198;20.908;2023-02-28T14:50:55;19.45;;;8.65;;
21162;SDS011;10739;52.198;20.908;2023-02-28T14:53:25;13.73;;;8.23;;
21162;SDS011;10739;52.198;20.908;2023-02-28T14:55:56;12.70;;;7.88;;
21162;SDS011;10739;52.198;20.908;2023-02-28T14:58:29;11.68;;;7.90;;
21162;SDS011;10739;52.198;20.908;2023-02-28T15:00:59;13.45;;;8.00;;
21162;SDS011;10739;52.198;20.908;2023-02-28T15:03:38;14.07;;;8.65;;
21162;SDS011;10739;52.198;20.908;2023-02-28T15:06:16;18.75;;;8.45;;
21162;SDS011;10739;52.198;20.908;2023-02-28T15:08:43;15.50;;;8.30;;
21162;SDS011;10739;52.198;20.908;2023-02-28T15:11:15;15.85;;;8.35;;
21162;SDS011;10739;52.198;20.908;2023-02-28T15:13:54;17.20;;;8.95;;
21162;SDS011;10739;52.198;20.908;2023-02-28T15:16:22;22.70;;;9.38;;
21162;SDS011;10739;52.198;20.908;2023-02-28T15:19:46;17.30;;;9.27;;
21162;SDS011;10739;52.198;20.908;2023-02-28T15:21:59;16.92;;;9.30;;
21162;SDS011;10739;52.198;20.908;2023-02-28T15:24:38;16.67;;;8.57;;
21162;SDS011;10739;52.198;20.908;2023-02-28T15:27:13;16.42;;;9.93;;
21162;SDS011;10739;52.198;20.908;2023-02-28T15:29:55;12.50;;;8.27;;
21162;SDS011;10739;52.198;20.908;2023-02-28T15:35:46;17.80;;;9.32;;
21162;SDS011;10739;52.198;20.908;2023-02-28T15:40:55;15.95;;;8.18;;
21162;SDS011;10739;52.198;20.908;2023-02-28T15:43:25;14.80;;;8.70;;
21162;SDS011;10739;52.198;20.908;2023-02-28T15:48:34;21.25;;;9.80;;
21162;SDS011;10739;52.198;20.908;2023-02-28T15:53:51;21.20;;;10.15;;
21162;SDS011;10739;52.198;20.908;2023-02-28T15:56:28;18.60;;;9.23;;
21162;SDS011;10739;52.198;20.908;2023-02-28T15:59:03;17.85;;;9.52;;
21162;SDS011;10739;52.198;20.908;2023-02-28T16:01:33;16.00;;;9.68;;
21162;SDS011;10739;52.198;20.908;2023-02-28T16:04:04;18.40;;;10.45;;
21162;SDS011;10739;52.198;20.908;2023-02-28T16:09:13;22.30;;;10.73;;
21162;SDS011;10739;52.198;20.908;2023-02-28T16:11:43;16.80;;;10.40;;
21162;SDS011;10739;52.198;20.908;2023-02-28T16:14:25;22.77;;;11.00;;
21162;SDS011;10739;52.198;20.908;2023-02-28T16:17:05;20.02;;;11.07;;
21162;SDS011;10739;52.198;20.908;2023-02-28T16:19:43;20.10;;;10.48;;
21162;SDS011;10739;52.198;20.908;2023-02-28T16:22:09;25.70;;;11.02;;
21162;SDS011;10739;52.198;20.908;2023-02-28T16:24:36;23.35;;;11.80;;
21162;SDS011;10739;52.198;20.908;2023-02-28T16:27:03;21.52;;;11.90;;
21162;SDS011;10739;52.198;20.908;2023-02-28T16:29:31;24.95;;;13.55;;
21162;SDS011;10739;52.198;20.908;2023-02-28T16:32:04;26.13;;;13.30;;
21162;SDS011;10739;52.198;20.908;2023-02-28T16:34:31;29.92;;;14.07;;
21162;SDS011;10739;52.198;20.908;2023-02-28T16:36:57;25.65;;;13.88;;
21162;SDS011;10739;52.198;20.908;2023-02-28T16:39:25;26.48;;;13.82;;
21162;SDS011;10739;52.198;20.908;2023-02-28T16:41:51;28.05;;;13.63;;
21162;SDS011;10739;52.198;20.908;2023-02-28T16:46:56;27.13;;;14.27;;
21162;SDS011;10739;52.198;20.908;2023-02-28T16:52:23;30.95;;;16.83;;
21162;SDS011;10739;52.198;20.908;2023-02-28T16:54:50;27.60;;;14.60;;
21162;SDS011;10739;52.198;20.908;2023-02-28T16:57:20;29.55;;;15.52;;
21162;SDS011;10739;52.198;20.908;2023-02-28T16:59:49;31.55;;;15.20;;
21162;SDS011;10739;52.198;20.908;2023-02-28T17:02:17;25.73;;;15.25;;
21162;SDS011;10739;52.198;20.908;2023-02-28T17:04:45;31.20;;;16.08;;
21162;SDS011;10739;52.198;20.908;2023-02-28T17:07:12;37.65;;;17.70;;
21162;SDS011;10739;52.198;20.908;2023-02-28T17:09:42;38.63;;;17.05;;
21162;SDS011;10739;52.198;20.908;2023-02-28T17:12:12;35.10;;;19.02;;
21162;SDS011;10739;52.198;20.908;2023-02-28T17:14:39;39.22;;;19.75;;
21162;SDS011;10739;52.198;20.908;2023-02-28T17:17:06;36.45;;;17.80;;
21162;SDS011;10739;52.198;20.908;2023-02-28T17:19:33;32.15;;;17.20;;
21162;SDS011;10739;52.198;20.908;2023-02-28T17:22:01;30.40;;;17.85;;
21162;SDS011;10739;52.198;20.908;2023-02-28T17:24:28;31.67;;;18.13;;
21162;SDS011;10739;52.198;20.908;2023-02-28T17:26:55;33.08;;;17.27;;
21162;SDS011;10739;52.198;20.908;2023-02-28T17:29:21;33.90;;;17.95;;